CDT,Max TemperatureF,Mean TemperatureF,Min TemperatureF,Max Dew PointF,MeanDew PointF,Min DewpointF,Max Humidity, Mean Humidity, Min Humidity, Max Sea Level PressureIn, Mean Sea Level PressureIn, Min Sea Level PressureIn, Max VisibilityMiles, Mean VisibilityMiles, Min VisibilityMiles, Max Wind SpeedMPH, Mean Wind SpeedMPH, Max Gust SpeedMPH,PrecipitationIn, CloudCover, Events, WindDirDegrees
2013-3-1,54,46,37,33,30,27,76,57,36,30.13,30.07,30.01,10,10,7,12,8,16,0.00,5,,328
2013-3-2,48,40,33,29,23,21,76,50,34,30.16,30.11,30.05,10,10,10,17,11,26,0.00,4,,313
2013-3-3,52,42,31,25,22,17,78,52,26,30.20,30.16,30.10,10,10,10,16,9,24,0.00,3,,320
2013-3-4,61,44,27,54,36,21,88,66,25,30.21,30.13,30.03,10,10,10,14,4,,0.00,3,,155
2013-3-5,73,60,44,60,56,38,100,80,52,30.13,30.03,29.93,10,9,7,24,11,37,0.05,5,Rain,215
2013-3-6,58,48,38,38,28,22,85,53,27,30.26,30.19,30.12,10,10,10,21,11,29,0.00,0,,328
2013-3-7,64,47,30,40,31,25,91,59,26,30.33,30.26,30.21,10,10,7,8,5,,0.00,2,,328
2013-3-8,72,52,31,43,34,26,94,59,17,30.31,30.24,30.19,10,10,7,8,2,,0.00,3,,336
2013-3-9,68,54,41,50,42,37,93,61,35,30.25,30.19,30.11,10,10,6,14,5,,0.00,2,,141
2013-3-10,71,63,55,57,53,37,100,69,45,30.15,30.08,29.99,10,10,10,22,12,32,0.00,3,,141
2013-3-11,68,59,48,63,56,43,100,93,76,30.00,29.90,29.82,10,8,0,22,10,38,1.20,7,Rain,80
2013-3-12,66,54,41,42,34,28,88,57,24,30.17,30.06,29.95,10,10,10,20,11,23,0.00,3,,340
2013-3-13,66,51,36,37,29,19,89,46,19,30.33,30.26,30.19,10,10,10,17,6,26,0.00,0,,319
2013-3-14,64,48,33,32,24,18,70,43,17,30.42,30.34,30.28,10,10,6,13,6,18,0.00,0,,352
2013-3-15,72,52,34,49,39,30,89,61,29,30.31,30.24,30.16,10,10,7,15,4,20,0.00,0,,216
2013-3-16,74,59,43,58,49,43,100,80,41,30.14,30.09,30.03,10,7,0,20,6,24,0.00,1,Fog,200
2013-3-17,72,61,51,65,57,50,100,95,71,30.06,30.00,29.95,10,4,0,15,3,,0.00,2,Fog,161
2013-3-18,76,67,59,69,63,59,100,90,69,29.97,29.92,29.84,10,10,3,17,7,,0.01,6,Rain-Thunderstorm,142
2013-3-19,79,68,55,63,54,43,100,75,30,30.06,29.97,29.90,10,10,10,14,6,17,0.04,4,Rain-Thunderstorm,19
2013-3-20,65,53,40,45,33,29,72,45,27,30.09,30.02,29.98,10,10,10,12,6,20,0.00,3,Rain,8
2013-3-21,65,51,37,38,27,18,81,44,16,30.07,30.00,29.92,10,10,10,12,7,20,0.00,4,,340
2013-3-22,65,56,47,45,36,25,71,44,26,30.01,29.94,29.92,10,10,10,15,5,21,0.00,7,,110
2013-3-23,72,64,58,65,58,36,100,85,38,29.92,29.77,29.63,10,8,0,10,5,,0.00,7,Fog-Rain-Thunderstorm,99
2013-3-24,82,68,51,72,62,30,100,76,26,29.90,29.62,29.56,10,8,4,21,13,29,0.00,4,Rain,250
2013-3-25,60,49,39,31,23,16,65,40,20,30.21,30.04,29.92,10,10,10,21,14,29,0.00,0,,311
2013-3-26,55,44,33,26,23,20,66,45,27,30.36,30.27,30.22,10,10,10,18,9,24,0.00,0,,332
2013-3-27,61,44,28,37,27,21,87,56,23,30.43,30.35,30.28,10,10,10,13,5,17,0.00,0,,335
2013-3-28,71,50,30,39,32,26,94,57,19,30.37,30.31,30.23,10,10,10,12,2,,0.00,0,,315
2013-3-29,72,54,36,48,37,31,93,58,22,30.34,30.28,30.23,10,10,10,14,4,21,0.00,1,,178
2013-3-30,74,59,44,60,52,45,100,82,44,30.22,30.17,30.09,10,6,0,15,5,22,0.00,1,Fog,176
2013-3-31,77,66,56,66,61,56,100,89,57,30.09,30.01,29.92,10,8,0,18,6,23,0.00,2,Fog-Rain,182